VGEG/CGP METAR and TAF weather

Enter ICAO airport designator
Station Type Date Time Source
VGEG METAR 2021/05/15 02:00 UTC NOAA

VGEG 150200Z 16006KT 6000 P.CLOUDY FEW028 SCT120 28/24 Q1008 NOSIG


Station Type Date Time Source
VGEG Decoded METAR 2021/05/15 02:00 UTC NOAA

Chittagong Patenga , Bangladesh (VGEG) 22-16N 091-49E 6M
May 14, 2021 - 10:00 PM EDT / 2021.05.15 0200 UTC
Wind: from the SSE (160 degrees) at 7 MPH (6 KT):0
Visibility: 3 mile(s):0
Sky conditions: partly cloudy
Temperature: 82 F (28 C)
Dew Point: 75 F (24 C)
Relative Humidity: 78%
Pressure (altimeter): 29.77 in. Hg (1008 hPa)
ob: VGEG 150200Z 16006KT 6000 P.CLOUDY FEW028 SCT120 28/24 Q1008 NOSIG
cycle: 2

Station Type Date Time Source
VGEG TAF 2021/05/15 00:33 UTC NOAA

TAF TAF VGEG 142300Z 1500/1606 00000KT 3600 HZ SCT013
BECMG 1504/1506 23010KT 5000 SCT018
BECMG 1510/1512 25012KT 2500 RA/TSRA BKN008 FEW026CB OVC090
TEMPO 1520/1603 00000KT 3600 HZ SCT013

Example: see airport list